Time,TemperatureF,DewpointF,PressureIn,WindDirection,WindDirectionDegrees,WindSpeedMPH,WindSpeedGustMPH,Humidity,HourlyPrecipIn,Conditions,Clouds,dailyrainin,SoftwareType,DateUTC
2013-11-15 00:09:00,28.0,24.4,30.20,SE,135,0.0,-999.0,86,-99.99,,,0.00,Acu-Link.com,2013-11-15 05:09:00,
2013-11-15 00:24:00,28.0,24.4,30.20,SE,135,0.0,-999.0,86,-99.99,,,0.00,Acu-Link.com,2013-11-15 05:24:00,
2013-11-15 00:39:00,27.7,24.6,30.20,SE,135,0.0,-999.0,88,-99.99,,,0.00,Acu-Link.com,2013-11-15 05:39:00,
2013-11-15 00:55:00,27.5,24.1,30.20,SE,135,0.0,-999.0,87,-99.99,,,0.00,Acu-Link.com,2013-11-15 05:55:00,
2013-11-15 01:10:00,27.5,24.1,30.18,SE,135,0.0,-999.0,87,-99.99,,,0.00,Acu-Link.com,2013-11-15 06:10:00,
2013-11-15 01:25:00,27.1,24.3,30.19,SE,135,0.0,-999.0,89,-99.99,,,0.00,Acu-Link.com,2013-11-15 06:25:00,
2013-11-15 01:40:00,27.0,24.2,30.18,SE,135,0.0,-999.0,89,-99.99,,,0.00,Acu-Link.com,2013-11-15 06:40:00,
2013-11-15 01:56:00,27.0,24.2,30.18,SE,135,0.0,-999.0,89,-99.99,,,0.00,Acu-Link.com,2013-11-15 06:56:00,
2013-11-15 02:11:00,26.8,24.5,30.19,SE,135,0.0,-999.0,91,-99.99,,,0.00,Acu-Link.com,2013-11-15 07:11:00,
2013-11-15 02:26:00,27.0,24.2,30.17,SE,135,0.0,-999.0,89,-99.99,,,0.00,Acu-Link.com,2013-11-15 07:26:00,
2013-11-15 02:41:00,27.0,24.4,30.18,SE,135,0.0,-999.0,90,-99.99,,,0.00,Acu-Link.com,2013-11-15 07:41:00,
2013-11-15 02:56:00,27.0,24.2,30.19,SE,135,0.0,-999.0,89,-99.99,,,0.00,Acu-Link.com,2013-11-15 07:56:00,
2013-11-15 03:12:00,27.0,24.4,30.19,SE,135,0.0,-999.0,90,-99.99,,,0.00,Acu-Link.com,2013-11-15 08:12:00,
2013-11-15 03:27:00,27.0,24.7,30.18,SE,135,0.0,-999.0,91,-99.99,,,0.00,Acu-Link.com,2013-11-15 08:27:00,
2013-11-15 03:42:00,27.0,24.4,30.17,SE,135,0.0,-999.0,90,-99.99,,,0.00,Acu-Link.com,2013-11-15 08:42:00,
2013-11-15 03:57:00,27.1,24.9,30.17,SE,135,0.0,-999.0,91,-99.99,,,0.00,Acu-Link.com,2013-11-15 08:57:00,
2013-11-15 04:13:00,27.5,25.2,30.17,SE,135,0.0,-999.0,91,-99.99,,,0.00,Acu-Link.com,2013-11-15 09:13:00,
2013-11-15 04:28:00,27.5,25.5,30.17,SE,135,0.0,-999.0,92,-99.99,,,0.00,Acu-Link.com,2013-11-15 09:28:00,
2013-11-15 04:43:00,27.9,25.8,30.17,SE,135,0.0,-999.0,92,-99.99,,,0.00,Acu-Link.com,2013-11-15 09:43:00,
2013-11-15 04:58:00,28.0,25.8,30.17,SE,135,0.0,-999.0,91,-99.99,,,0.00,Acu-Link.com,2013-11-15 09:58:00,
2013-11-15 05:13:00,28.4,26.1,30.17,SE,135,0.0,-999.0,91,-99.99,,,0.00,Acu-Link.com,2013-11-15 10:13:00,
2013-11-15 05:29:00,28.4,25.8,30.18,SE,135,0.0,-999.0,90,-99.99,,,0.00,Acu-Link.com,2013-11-15 10:29:00,
2013-11-15 05:44:00,28.8,26.2,30.17,SE,135,0.0,-999.0,90,-99.99,,,0.00,Acu-Link.com,2013-11-15 10:44:00,
2013-11-15 05:59:00,28.9,26.4,30.18,SE,135,0.0,-999.0,90,-99.99,,,0.00,Acu-Link.com,2013-11-15 10:59:00,
2013-11-15 06:14:00,29.3,26.7,30.17,SE,135,0.0,-999.0,90,-99.99,,,0.00,Acu-Link.com,2013-11-15 11:14:00,
2013-11-15 06:30:00,29.5,26.9,30.18,SE,135,0.0,-999.0,90,-99.99,,,0.00,Acu-Link.com,2013-11-15 11:30:00,
2013-11-15 06:45:00,29.5,27.2,30.18,SE,135,0.0,-999.0,91,-99.99,,,0.00,Acu-Link.com,2013-11-15 11:45:00,
2013-11-15 07:00:00,29.8,27.3,30.19,SE,135,0.0,-999.0,90,-99.99,,,0.00,Acu-Link.com,2013-11-15 12:00:00,
2013-11-15 07:15:00,30.2,27.9,30.19,SE,135,0.0,-999.0,91,-99.99,,,0.00,Acu-Link.com,2013-11-15 12:15:00,
2013-11-15 07:31:00,30.7,28.4,30.19,SE,135,0.0,-999.0,91,-99.99,,,0.00,Acu-Link.com,2013-11-15 12:31:00,
2013-11-15 07:46:00,31.8,29.0,30.18,SE,135,0.0,-999.0,89,-99.99,,,0.00,Acu-Link.com,2013-11-15 12:46:00,
2013-11-15 08:01:00,32.4,29.8,30.19,SE,135,0.0,-999.0,90,-99.99,,,0.00,Acu-Link.com,2013-11-15 13:01:00,
2013-11-15 08:16:00,33.3,30.1,30.19,SE,135,0.0,-999.0,88,-99.99,,,0.00,Acu-Link.com,2013-11-15 13:16:00,
2013-11-15 08:31:00,34.9,31.1,30.20,SE,135,0.0,-999.0,86,-99.99,,,0.00,Acu-Link.com,2013-11-15 13:31:00,
2013-11-15 08:47:00,36.5,32.4,30.20,SE,135,0.0,-999.0,85,-99.99,,,0.00,Acu-Link.com,2013-11-15 13:47:00,
2013-11-15 09:02:00,37.8,32.5,30.22,SE,135,0.0,-999.0,81,-99.99,,,0.00,Acu-Link.com,2013-11-15 14:02:00,
2013-11-15 09:17:00,39.6,33.3,30.21,SE,135,0.0,-999.0,78,-99.99,,,0.00,Acu-Link.com,2013-11-15 14:17:00,
2013-11-15 09:32:00,41.2,34.2,30.21,SE,135,0.0,-999.0,76,-99.99,,,0.00,Acu-Link.com,2013-11-15 14:32:00,
2013-11-15 09:48:00,43.0,34.9,30.21,SE,135,0.0,-999.0,73,-99.99,,,0.00,Acu-Link.com,2013-11-15 14:48:00,
2013-11-15 10:03:00,45.1,35.6,30.21,SE,135,0.0,-999.0,69,-99.99,,,0.00,Acu-Link.com,2013-11-15 15:03:00,
2013-11-15 10:18:00,47.1,36.0,30.21,SE,135,0.0,-999.0,65,-99.99,,,0.00,Acu-Link.com,2013-11-15 15:18:00,
2013-11-15 10:33:00,49.3,36.8,30.21,SE,135,1.1,-999.0,62,-99.99,,,0.00,Acu-Link.com,2013-11-15 15:33:00,
2013-11-15 10:48:00,51.8,37.9,30.20,SE,135,0.0,-999.0,59,-99.99,,,0.00,Acu-Link.com,2013-11-15 15:48:00,
2013-11-15 11:04:00,54.3,38.5,30.20,SE,135,0.0,-999.0,55,-99.99,,,0.00,Acu-Link.com,2013-11-15 16:04:00,
2013-11-15 11:19:00,55.4,38.6,30.19,SE,135,2.2,-999.0,53,-99.99,,,0.00,Acu-Link.com,2013-11-15 16:19:00,
2013-11-15 11:34:00,55.6,38.7,30.19,SE,135,0.0,-999.0,53,-99.99,,,0.00,Acu-Link.com,2013-11-15 16:34:00,
2013-11-15 11:49:00,56.5,38.6,30.17,SE,135,0.0,-999.0,51,-99.99,,,0.00,Acu-Link.com,2013-11-15 16:49:00,
2013-11-15 12:05:00,56.7,38.2,30.16,SE,135,1.6,-999.0,50,-99.99,,,0.00,Acu-Link.com,2013-11-15 17:05:00,
2013-11-15 12:20:00,57.4,38.9,30.16,SE,135,0.0,-999.0,50,-99.99,,,0.00,Acu-Link.com,2013-11-15 17:20:00,
2013-11-15 12:35:00,59.2,39.5,30.14,SE,135,0.0,-999.0,48,-99.99,,,0.00,Acu-Link.com,2013-11-15 17:35:00,
2013-11-15 12:50:00,58.8,38.6,30.14,SE,135,0.0,-999.0,47,-99.99,,,0.00,Acu-Link.com,2013-11-15 17:50:00,
2013-11-15 13:06:00,60.4,40.7,30.13,SE,135,0.0,-999.0,48,-99.99,,,0.00,Acu-Link.com,2013-11-15 18:06:00,
2013-11-15 13:21:00,60.8,39.3,30.12,SE,135,1.6,-999.0,45,-99.99,,,0.00,Acu-Link.com,2013-11-15 18:21:00,
2013-11-15 13:36:00,61.0,40.6,30.11,SE,135,1.6,-999.0,47,-99.99,,,0.00,Acu-Link.com,2013-11-15 18:36:00,
2013-11-15 13:51:00,60.8,39.9,30.10,SE,135,1.1,-999.0,46,-99.99,,,0.00,Acu-Link.com,2013-11-15 18:51:00,
2013-11-15 14:06:00,60.6,40.8,30.09,SE,135,1.6,-999.0,48,-99.99,,,0.00,Acu-Link.com,2013-11-15 19:06:00,
2013-11-15 14:22:00,60.6,42.9,30.08,SE,135,0.0,-999.0,52,-99.99,,,0.00,Acu-Link.com,2013-11-15 19:22:00,
2013-11-15 14:37:00,60.3,44.0,30.07,SE,135,0.0,-999.0,55,-99.99,,,0.00,Acu-Link.com,2013-11-15 19:37:00,
2013-11-15 14:52:00,60.4,43.7,30.07,SE,135,2.2,-999.0,54,-99.99,,,0.00,Acu-Link.com,2013-11-15 19:52:00,
2013-11-15 15:07:00,60.3,43.5,30.07,SE,135,1.1,-999.0,54,-99.99,,,0.00,Acu-Link.com,2013-11-15 20:07:00,
2013-11-15 15:23:00,59.7,44.0,30.07,SE,135,0.0,-999.0,56,-99.99,,,0.00,Acu-Link.com,2013-11-15 20:23:00,
2013-11-15 15:38:00,59.7,44.5,30.07,SE,135,0.0,-999.0,57,-99.99,,,0.00,Acu-Link.com,2013-11-15 20:38:00,
2013-11-15 15:53:00,59.2,44.0,30.07,SE,135,0.0,-999.0,57,-99.99,,,0.00,Acu-Link.com,2013-11-15 20:53:00,
2013-11-15 16:08:00,58.8,44.5,30.06,SE,135,0.0,-999.0,59,-99.99,,,0.00,Acu-Link.com,2013-11-15 21:08:00,
2013-11-15 16:23:00,58.5,44.2,30.07,SE,135,0.0,-999.0,59,-99.99,,,0.00,Acu-Link.com,2013-11-15 21:23:00,
2013-11-15 16:39:00,57.9,44.1,30.06,SE,135,0.0,-999.0,60,-99.99,,,0.00,Acu-Link.com,2013-11-15 21:39:00,
2013-11-15 16:54:00,56.7,45.0,30.06,SE,135,0.0,-999.0,65,-99.99,,,0.00,Acu-Link.com,2013-11-15 21:54:00,
2013-11-15 17:09:00,55.8,45.0,30.06,SE,135,0.0,-999.0,67,-99.99,,,0.00,Acu-Link.com,2013-11-15 22:09:00,
2013-11-15 17:24:00,55.2,45.2,30.07,SE,135,0.0,-999.0,69,-99.99,,,0.00,Acu-Link.com,2013-11-15 22:24:00,
2013-11-15 17:40:00,54.9,44.9,30.07,SE,135,0.0,-999.0,69,-99.99,,,0.00,Acu-Link.com,2013-11-15 22:40:00,
2013-11-15 17:55:00,54.3,44.7,30.06,SE,135,0.0,-999.0,70,-99.99,,,0.00,Acu-Link.com,2013-11-15 22:55:00,
2013-11-15 18:10:00,53.6,45.2,30.06,SE,135,0.0,-999.0,73,-99.99,,,0.00,Acu-Link.com,2013-11-15 23:10:00,
2013-11-15 18:25:00,53.2,44.8,30.06,SE,135,0.0,-999.0,73,-99.99,,,0.00,Acu-Link.com,2013-11-15 23:25:00,
2013-11-15 18:41:00,53.1,45.3,30.07,SE,135,0.0,-999.0,75,-99.99,,,0.00,Acu-Link.com,2013-11-15 23:41:00,
2013-11-15 18:56:00,52.7,44.6,30.07,SE,135,0.0,-999.0,74,-99.99,,,0.00,Acu-Link.com,2013-11-15 23:56:00,
2013-11-15 19:11:00,52.5,44.8,30.07,SE,135,0.0,-999.0,75,-99.99,,,0.00,Acu-Link.com,2013-11-16 00:11:00,
2013-11-15 19:26:00,52.5,45.2,30.07,SE,135,0.0,-999.0,76,-99.99,,,0.00,Acu-Link.com,2013-11-16 00:26:00,
2013-11-15 19:41:00,52.0,46.0,30.07,SE,135,0.0,-999.0,80,-99.99,,,0.00,Acu-Link.com,2013-11-16 00:41:00,
2013-11-15 19:57:00,51.8,46.2,30.07,SE,135,0.0,-999.0,81,-99.99,,,0.00,Acu-Link.com,2013-11-16 00:57:00,
2013-11-15 20:12:00,51.6,45.3,30.06,SE,135,0.0,-999.0,79,-99.99,,,0.00,Acu-Link.com,2013-11-16 01:12:00,
2013-11-15 20:27:00,51.4,46.8,30.07,SE,135,0.0,-999.0,84,-99.99,,,0.00,Acu-Link.com,2013-11-16 01:27:00,
2013-11-15 20:42:00,50.9,46.9,30.06,SE,135,0.0,-999.0,86,-99.99,,,0.00,Acu-Link.com,2013-11-16 01:42:00,
2013-11-15 20:58:00,50.4,47.5,30.07,SE,135,0.0,-999.0,90,-99.99,,,0.00,Acu-Link.com,2013-11-16 01:58:00,
2013-11-15 21:13:00,49.8,47.6,30.09,SE,135,0.0,-999.0,92,-99.99,,,0.00,Acu-Link.com,2013-11-16 02:13:00,
2013-11-15 21:28:00,49.6,47.7,30.10,SE,135,0.0,-999.0,93,-99.99,,,0.00,Acu-Link.com,2013-11-16 02:28:00,
2013-11-15 21:43:00,49.6,47.7,30.11,SE,135,0.0,-999.0,93,-99.99,,,0.01,Acu-Link.com,2013-11-16 02:43:00,
2013-11-15 21:58:00,49.6,47.7,30.11,SE,135,0.0,-999.0,93,-99.99,,,0.01,Acu-Link.com,2013-11-16 02:58:00,
2013-11-15 22:14:00,49.6,48.0,30.10,SE,135,0.0,-999.0,94,-99.99,,,0.04,Acu-Link.com,2013-11-16 03:14:00,
2013-11-15 22:29:00,49.6,48.3,30.11,SE,135,0.0,-999.0,95,-99.99,,,0.08,Acu-Link.com,2013-11-16 03:29:00,
2013-11-15 22:44:00,49.6,48.5,30.10,SE,135,0.0,-999.0,96,-99.99,,,0.09,Acu-Link.com,2013-11-16 03:44:00,
2013-11-15 22:59:00,49.6,48.5,30.09,SE,135,0.0,-999.0,96,-99.99,,,0.11,Acu-Link.com,2013-11-16 03:59:00,
2013-11-15 23:15:00,49.5,48.9,30.08,SE,135,0.0,-999.0,98,-99.99,,,0.12,Acu-Link.com,2013-11-16 04:15:00,
2013-11-15 23:30:00,49.5,48.6,30.08,SE,135,0.0,-999.0,97,-99.99,,,0.12,Acu-Link.com,2013-11-16 04:30:00,
2013-11-15 23:45:00,49.5,48.6,30.08,SE,135,0.0,-999.0,97,-99.99,,,0.12,Acu-Link.com,2013-11-16 04:45:00,